Time;durP1;ratioP1;P1;durP2;ratioP2;P2;SDS_P1;SDS_P2;PMS_P1;PMS_P2;Temp;Humidity;BMP_temperature;BMP_pressure;BME280_temperature;BME280_humidity;BME280_pressure;Samples;Min_cycle;Max_cycle;Signal;HPM_P1;HPM_P2
2023/03/07 00:00:49;;;;;;;24.25;16.25;;;;;;;;;;5015301;28;20045;-86
2023/03/07 00:03:17;;;;;;;23.33;14.82;;;;;;;;;;5019000;28;20052;-85
2023/03/07 00:05:44;;;;;;;20.33;14.07;;;;;;;;;;5014753;28;20054;-85
2023/03/07 00:08:11;;;;;;;21.00;14.65;;;;;;;;;;5014962;28;20058;-85
2023/03/07 00:10:39;;;;;;;22.52;14.25;;;;;;;;;;5014546;28;20046;-84
2023/03/07 00:13:07;;;;;;;20.23;13.90;;;;;;;;;;5014174;28;20056;-85
2023/03/07 00:15:37;;;;;;;22.02;15.02;;;;;;;;;;5014935;28;20049;-85
2023/03/07 00:18:04;;;;;;;20.17;14.30;;;;;;;;;;5014980;28;20072;-86
2023/03/07 00:20:31;;;;;;;21.00;14.43;;;;;;;;;;5015684;28;20050;-86
2023/03/07 00:22:59;;;;;;;20.63;13.43;;;;;;;;;;5015809;28;20056;-86
2023/03/07 00:25:26;;;;;;;19.70;13.52;;;;;;;;;;5015524;28;20427;-86
2023/03/07 00:27:53;;;;;;;59.17;14.82;;;;;;;;;;5014608;28;20057;-87
2023/03/07 00:30:20;;;;;;;21.25;13.82;;;;;;;;;;5014775;28;20505;-86
2023/03/07 00:32:48;;;;;;;24.90;14.25;;;;;;;;;;5015612;28;20049;-86
2023/03/07 00:35:15;;;;;;;20.83;13.60;;;;;;;;;;5014641;28;20133;-86
2023/03/07 00:37:42;;;;;;;20.52;13.70;;;;;;;;;;5014491;28;20081;-86
2023/03/07 00:40:10;;;;;;;21.00;13.63;;;;;;;;;;5013999;28;20050;-86
2023/03/07 00:42:37;;;;;;;23.45;15.27;;;;;;;;;;5015515;28;20054;-86
2023/03/07 00:45:04;;;;;;;19.75;13.38;;;;;;;;;;5014206;28;20054;-86
2023/03/07 00:47:31;;;;;;;18.67;12.68;;;;;;;;;;5014179;28;20073;-86
2023/03/07 00:49:59;;;;;;;23.30;13.77;;;;;;;;;;5015378;28;20140;-86
2023/03/07 00:52:26;;;;;;;22.63;14.68;;;;;;;;;;5014764;28;20041;-86
2023/03/07 00:54:53;;;;;;;19.83;13.52;;;;;;;;;;5013782;28;20052;-86
2023/03/07 00:57:20;;;;;;;20.42;13.48;;;;;;;;;;5013883;28;20141;-85
2023/03/07 00:59:47;;;;;;;20.30;13.40;;;;;;;;;;5013851;28;20045;-86
2023/03/07 01:02:15;;;;;;;19.90;13.10;;;;;;;;;;5014774;28;20061;-87
2023/03/07 01:04:42;;;;;;;21.65;13.45;;;;;;;;;;5013187;28;20046;-85
2023/03/07 01:07:09;;;;;;;18.33;12.75;;;;;;;;;;5013655;28;20057;-85
2023/03/07 01:09:36;;;;;;;23.50;12.80;;;;;;;;;;5014229;28;20058;-85
2023/03/07 01:12:06;;;;;;;22.20;13.65;;;;;;;;;;5014070;28;20046;-85
2023/03/07 01:14:33;;;;;;;20.65;13.55;;;;;;;;;;5012604;28;20046;-84
2023/03/07 01:17:00;;;;;;;21.27;13.52;;;;;;;;;;5012304;28;20046;-85
2023/03/07 01:19:27;;;;;;;20.42;13.02;;;;;;;;;;5011962;28;20050;-84
2023/03/07 01:21:54;;;;;;;19.55;12.43;;;;;;;;;;5014437;28;20050;-85
2023/03/07 01:24:22;;;;;;;20.58;13.60;;;;;;;;;;5014325;28;20521;-84
2023/03/07 01:26:49;;;;;;;20.85;13.07;;;;;;;;;;5012976;28;20050;-86
2023/03/07 01:29:16;;;;;;;21.00;13.45;;;;;;;;;;5013305;28;20406;-85
2023/03/07 01:31:44;;;;;;;19.75;12.85;;;;;;;;;;5013197;28;20054;-86
2023/03/07 01:34:11;;;;;;;23.73;13.50;;;;;;;;;;5014061;28;20494;-85
2023/03/07 01:36:38;;;;;;;20.02;13.52;;;;;;;;;;5014479;28;20074;-85
2023/03/07 01:39:09;;;;;;;20.25;12.52;;;;;;;;;;5013476;28;20069;-85
2023/03/07 01:41:37;;;;;;;22.42;13.32;;;;;;;;;;5013212;28;20053;-86
2023/03/07 01:44:11;;;;;;;19.98;12.55;;;;;;;;;;5012892;28;20128;-85
2023/03/07 01:46:41;;;;;;;21.08;13.52;;;;;;;;;;5012819;28;20056;-86
2023/03/07 01:49:27;;;;;;;19.33;12.38;;;;;;;;;;5013263;28;20058;-85
2023/03/07 01:52:03;;;;;;;24.70;13.80;;;;;;;;;;5012251;28;20053;-85
2023/03/07 01:54:31;;;;;;;21.15;12.98;;;;;;;;;;5012780;28;20081;-84
2023/03/07 01:57:00;;;;;;;22.15;14.07;;;;;;;;;;5014010;28;20054;-86
2023/03/07 01:59:30;;;;;;;21.17;14.23;;;;;;;;;;5013121;28;20136;-86
2023/03/07 02:02:00;;;;;;;23.55;15.13;;;;;;;;;;5013019;28;20088;-87
2023/03/07 02:04:33;;;;;;;22.15;14.52;;;;;;;;;;5012884;28;20056;-87
2023/03/07 02:07:02;;;;;;;22.90;14.60;;;;;;;;;;5012749;28;20054;-86
2023/03/07 02:09:30;;;;;;;23.17;14.95;;;;;;;;;;5013407;28;20053;-85
2023/03/07 02:11:59;;;;;;;22.73;15.20;;;;;;;;;;5012323;28;20052;-85
2023/03/07 02:14:26;;;;;;;23.58;13.68;;;;;;;;;;5013587;28;20046;-87
2023/03/07 02:16:53;;;;;;;23.10;14.60;;;;;;;;;;5012149;28;20478;-86
2023/03/07 02:19:50;;;;;;;20.92;13.48;;;;;;;;;;5012198;28;20165;-84
2023/03/07 02:22:17;;;;;;;21.38;14.45;;;;;;;;;;5004839;28;20050;-86
2023/03/07 02:24:55;;;;;;;24.50;14.77;;;;;;;;;;5012135;28;20056;-86
2023/03/07 02:27:24;;;;;;;21.45;13.90;;;;;;;;;;5012617;28;20053;-86
2023/03/07 02:29:52;;;;;;;20.13;13.55;;;;;;;;;;5012134;28;20054;-85
2023/03/07 02:32:19;;;;;;;20.77;14.07;;;;;;;;;;5012145;28;20482;-85
2023/03/07 02:34:46;;;;;;;21.00;13.98;;;;;;;;;;5011918;28;20141;-85
2023/03/07 02:37:17;;;;;;;24.42;14.00;;;;;;;;;;5012442;28;20054;-86
2023/03/07 02:39:45;;;;;;;21.45;13.32;;;;;;;;;;5012259;28;20061;-85
2023/03/07 02:42:23;;;;;;;20.52;13.52;;;;;;;;;;5012305;28;20056;-85
2023/03/07 02:45:01;;;;;;;19.88;13.23;;;;;;;;;;5013040;28;20057;-86
2023/03/07 02:47:28;;;;;;;20.52;13.20;;;;;;;;;;5012143;28;20161;-84
2023/03/07 02:49:55;;;;;;;20.90;13.65;;;;;;;;;;5013299;28;20050;-86
2023/03/07 02:52:23;;;;;;;19.08;12.98;;;;;;;;;;5012222;28;20041;-86
2023/03/07 02:54:50;;;;;;;21.48;13.43;;;;;;;;;;5011898;28;20053;-83
2023/03/07 02:57:18;;;;;;;20.67;12.65;;;;;;;;;;5011934;28;20053;-87
2023/03/07 02:59:45;;;;;;;22.52;13.82;;;;;;;;;;5013086;28;20058;-85
2023/03/07 03:02:13;;;;;;;17.75;11.88;;;;;;;;;;5012313;28;20437;-85
2023/03/07 03:04:40;;;;;;;20.00;12.85;;;;;;;;;;5015886;28;20060;-85
2023/03/07 03:07:07;;;;;;;20.17;12.40;;;;;;;;;;5015634;28;20504;-85
2023/03/07 03:09:35;;;;;;;19.20;12.20;;;;;;;;;;5016522;28;20061;-85
2023/03/07 03:12:02;;;;;;;18.77;12.52;;;;;;;;;;5016817;28;20490;-85
2023/03/07 03:14:31;;;;;;;19.45;12.70;;;;;;;;;;5016738;28;20517;-86
2023/03/07 03:16:58;;;;;;;20.92;12.55;;;;;;;;;;5015984;28;20438;-86
2023/03/07 03:19:25;;;;;;;19.23;12.30;;;;;;;;;;5015826;28;20140;-85
2023/03/07 03:21:52;;;;;;;18.52;11.98;;;;;;;;;;5016736;28;20050;-85
2023/03/07 03:24:19;;;;;;;19.73;12.75;;;;;;;;;;5015331;28;20064;-86
2023/03/07 03:26:47;;;;;;;18.15;12.27;;;;;;;;;;5015834;28;20149;-86
2023/03/07 03:29:14;;;;;;;18.45;12.05;;;;;;;;;;5016366;28;20056;-85
2023/03/07 03:31:41;;;;;;;18.98;12.00;;;;;;;;;;5015535;28;20402;-86
2023/03/07 03:34:08;;;;;;;18.27;11.85;;;;;;;;;;5015379;28;20081;-87
2023/03/07 03:36:35;;;;;;;16.45;11.57;;;;;;;;;;5016389;28;20487;-85
2023/03/07 03:39:05;;;;;;;19.35;12.35;;;;;;;;;;5015223;28;20084;-86
2023/03/07 03:41:33;;;;;;;17.98;11.57;;;;;;;;;;5014915;28;20056;-85
2023/03/07 03:44:00;;;;;;;18.30;10.80;;;;;;;;;;5015135;28;20056;-85
2023/03/07 03:46:27;;;;;;;18.95;11.52;;;;;;;;;;5016279;28;20050;-87
2023/03/07 03:48:55;;;;;;;17.27;10.93;;;;;;;;;;5015359;28;20045;-86
2023/03/07 03:51:23;;;;;;;16.35;10.60;;;;;;;;;;5015102;28;20422;-86
2023/03/07 03:53:51;;;;;;;17.17;11.07;;;;;;;;;;5016403;28;20129;-86
2023/03/07 03:56:19;;;;;;;16.88;11.35;;;;;;;;;;5016236;28;20049;-86
2023/03/07 03:58:51;;;;;;;17.70;11.60;;;;;;;;;;5015136;28;20050;-85
2023/03/07 04:01:19;;;;;;;15.20;10.80;;;;;;;;;;5015142;28;20600;-86
2023/03/07 04:03:47;;;;;;;13.63;9.75;;;;;;;;;;5014566;28;20536;-83
2023/03/07 04:06:17;;;;;;;14.15;9.57;;;;;;;;;;5015651;28;20046;-86
2023/03/07 04:08:48;;;;;;;14.30;9.38;;;;;;;;;;5014580;28;20046;-86
2023/03/07 04:11:15;;;;;;;13.50;9.55;;;;;;;;;;5016052;28;20046;-86
2023/03/07 04:13:42;;;;;;;13.70;8.82;;;;;;;;;;5015566;28;20049;-85
2023/03/07 04:16:10;;;;;;;14.65;9.52;;;;;;;;;;5014753;28;20066;-85
2023/03/07 04:18:38;;;;;;;14.40;9.20;;;;;;;;;;5015261;28;20081;-83
2023/03/07 04:21:06;;;;;;;15.77;9.63;;;;;;;;;;5015672;28;20112;-86
2023/03/07 04:23:34;;;;;;;13.48;8.98;;;;;;;;;;5015598;28;20525;-86
2023/03/07 04:26:02;;;;;;;12.60;9.38;;;;;;;;;;5014126;28;20145;-85
2023/03/07 04:28:48;;;;;;;14.65;9.57;;;;;;;;;;5016138;28;20049;-86
2023/03/07 04:31:17;;;;;;;12.50;9.13;;;;;;;;;;5014990;28;20132;-85
2023/03/07 04:33:45;;;;;;;14.80;10.00;;;;;;;;;;5013995;28;20041;-86
2023/03/07 04:36:15;;;;;;;13.25;9.27;;;;;;;;;;5014558;28;20117;-86
2023/03/07 04:38:42;;;;;;;13.13;9.23;;;;;;;;;;5014136;28;20056;-85
2023/03/07 04:41:12;;;;;;;12.57;8.70;;;;;;;;;;5014543;28;20557;-86
2023/03/07 04:43:40;;;;;;;12.95;8.82;;;;;;;;;;5015399;28;20056;-86
2023/03/07 04:46:08;;;;;;;12.43;8.50;;;;;;;;;;5014509;28;20513;-85
2023/03/07 04:48:35;;;;;;;13.18;8.68;;;;;;;;;;5015178;28;20078;-85
2023/03/07 04:51:02;;;;;;;9.52;7.68;;;;;;;;;;5015368;28;20071;-86
2023/03/07 04:53:30;;;;;;;11.27;8.18;;;;;;;;;;5014033;28;20046;-85
2023/03/07 04:55:58;;;;;;;12.00;8.98;;;;;;;;;;5014005;28;20444;-85
2023/03/07 04:58:28;;;;;;;12.00;8.45;;;;;;;;;;5014792;28;20141;-84
2023/03/07 05:00:55;;;;;;;12.45;8.65;;;;;;;;;;5013557;28;20057;-85
2023/03/07 05:03:23;;;;;;;14.02;9.68;;;;;;;;;;5013823;28;20223;-86
2023/03/07 05:05:51;;;;;;;13.52;9.57;;;;;;;;;;5014786;28;20057;-86
2023/03/07 05:08:18;;;;;;;12.20;9.45;;;;;;;;;;5013451;28;20046;-86
2023/03/07 05:10:45;;;;;;;13.02;9.68;;;;;;;;;;5013780;28;20054;-85
2023/03/07 05:13:12;;;;;;;15.38;10.10;;;;;;;;;;5014837;28;20050;-86
2023/03/07 05:15:39;;;;;;;18.42;9.48;;;;;;;;;;5013530;28;20061;-85
2023/03/07 05:18:07;;;;;;;14.77;9.93;;;;;;;;;;5013569;28;20046;-84
2023/03/07 05:20:34;;;;;;;13.90;9.52;;;;;;;;;;5014639;28;20133;-85
2023/03/07 05:23:01;;;;;;;13.85;9.85;;;;;;;;;;5013384;28;20482;-85
2023/03/07 05:25:29;;;;;;;14.27;10.13;;;;;;;;;;5013783;28;20069;-86
2023/03/07 05:27:56;;;;;;;15.98;10.30;;;;;;;;;;5013139;28;20414;-86
2023/03/07 05:30:23;;;;;;;13.88;9.80;;;;;;;;;;5013190;28;20085;-87
2023/03/07 05:32:50;;;;;;;12.90;9.38;;;;;;;;;;5013647;28;20046;-85
2023/03/07 05:35:17;;;;;;;13.82;10.05;;;;;;;;;;5013171;28;20050;-86
2023/03/07 05:37:45;;;;;;;13.52;9.50;;;;;;;;;;5013067;28;20133;-85
2023/03/07 05:40:12;;;;;;;15.27;9.98;;;;;;;;;;5014228;28;20053;-85
2023/03/07 05:42:40;;;;;;;12.55;9.30;;;;;;;;;;5012892;28;20057;-84
2023/03/07 05:45:07;;;;;;;13.65;9.30;;;;;;;;;;5013217;28;20137;-85
2023/03/07 05:47:34;;;;;;;12.07;8.88;;;;;;;;;;5013148;28;20132;-86
2023/03/07 05:50:02;;;;;;;13.57;9.40;;;;;;;;;;5013369;28;20422;-86
2023/03/07 05:52:29;;;;;;;13.27;9.27;;;;;;;;;;5012934;28;20494;-86
2023/03/07 05:54:56;;;;;;;9.98;8.23;;;;;;;;;;5014036;28;20076;-86
2023/03/07 05:57:23;;;;;;;13.02;8.40;;;;;;;;;;5012969;28;20050;-87
2023/03/07 05:59:51;;;;;;;11.07;7.90;;;;;;;;;;5013093;28;20050;-86
2023/03/07 06:02:18;;;;;;;8.40;7.07;;;;;;;;;;5013844;28;20050;-86
2023/03/07 06:04:45;;;;;;;10.80;7.70;;;;;;;;;;5013539;28;20486;-86
2023/03/07 06:07:13;;;;;;;8.82;6.80;;;;;;;;;;5012703;28;20057;-86
2023/03/07 06:09:40;;;;;;;12.48;8.00;;;;;;;;;;5012168;28;20082;-84
2023/03/07 06:12:08;;;;;;;12.77;7.00;;;;;;;;;;5012705;28;20088;-88
2023/03/07 06:14:36;;;;;;;9.63;7.35;;;;;;;;;;5012806;28;20049;-85
2023/03/07 06:17:04;;;;;;;8.98;7.07;;;;;;;;;;5012893;28;20050;-87
2023/03/07 06:19:32;;;;;;;8.98;6.68;;;;;;;;;;5012608;28;20082;-86
2023/03/07 06:21:59;;;;;;;8.75;7.03;;;;;;;;;;5012661;28;20085;-86
2023/03/07 06:24:27;;;;;;;9.77;7.22;;;;;;;;;;5012808;28;20056;-85
2023/03/07 06:26:54;;;;;;;10.95;6.80;;;;;;;;;;5014061;28;20050;-86
2023/03/07 06:29:21;;;;;;;11.60;6.60;;;;;;;;;;5012156;28;20049;-86
2023/03/07 06:31:49;;;;;;;9.48;7.03;;;;;;;;;;5011975;28;20136;-86
2023/03/07 06:34:17;;;;;;;8.98;6.05;;;;;;;;;;5011278;28;20100;-89
2023/03/07 06:36:44;;;;;;;9.80;6.40;;;;;;;;;;5012348;28;20098;-85
2023/03/07 06:39:12;;;;;;;8.32;6.50;;;;;;;;;;5011874;28;20114;-86
2023/03/07 06:41:39;;;;;;;7.43;6.40;;;;;;;;;;5012385;28;20399;-86
2023/03/07 06:44:06;;;;;;;7.50;6.25;;;;;;;;;;5012358;28;20056;-85
2023/03/07 06:46:34;;;;;;;8.10;6.63;;;;;;;;;;4997564;28;20042;-86
2023/03/07 06:49:01;;;;;;;8.85;6.63;;;;;;;;;;5010245;28;20133;-85
2023/03/07 06:51:28;;;;;;;7.70;6.45;;;;;;;;;;5011452;28;20062;-86
2023/03/07 06:53:56;;;;;;;8.00;6.47;;;;;;;;;;5011615;28;20478;-85
2023/03/07 06:56:23;;;;;;;8.88;6.35;;;;;;;;;;5010281;28;20054;-86
2023/03/07 06:58:51;;;;;;;7.70;6.30;;;;;;;;;;5012294;28;20058;-84
2023/03/07 07:01:19;;;;;;;9.18;7.15;;;;;;;;;;5010988;28;20050;-85
2023/03/07 07:03:46;;;;;;;10.27;7.00;;;;;;;;;;5011398;28;20410;-85
2023/03/07 07:06:13;;;;;;;10.77;7.78;;;;;;;;;;5011196;28;20050;-84
2023/03/07 07:08:40;;;;;;;10.18;7.30;;;;;;;;;;5012599;28;20058;-85
2023/03/07 07:11:07;;;;;;;8.80;7.00;;;;;;;;;;5011911;28;20052;-85
2023/03/07 07:13:35;;;;;;;9.85;7.32;;;;;;;;;;5011695;28;20060;-85
2023/03/07 07:16:06;;;;;;;10.32;8.07;;;;;;;;;;5013075;28;20046;-85
2023/03/07 07:18:33;;;;;;;10.13;7.45;;;;;;;;;;5011725;28;20461;-85
2023/03/07 07:21:01;;;;;;;14.45;8.32;;;;;;;;;;5011848;28;20050;-88
2023/03/07 07:23:28;;;;;;;9.80;7.32;;;;;;;;;;5012898;28;20136;-86
2023/03/07 07:25:55;;;;;;;9.18;7.38;;;;;;;;;;5012791;28;20054;-85
2023/03/07 07:28:22;;;;;;;11.10;8.23;;;;;;;;;;5012706;28;20061;-86
2023/03/07 07:30:50;;;;;;;9.55;7.60;;;;;;;;;;5012886;28;20060;-85
2023/03/07 07:33:17;;;;;;;16.75;9.23;;;;;;;;;;5011978;28;20467;-86
2023/03/07 07:35:45;;;;;;;10.20;8.32;;;;;;;;;;5011562;28;20141;-85
2023/03/07 07:38:13;;;;;;;11.02;8.23;;;;;;;;;;5012962;28;20057;-85
2023/03/07 07:40:40;;;;;;;11.07;7.85;;;;;;;;;;5011520;28;20057;-84
2023/03/07 07:43:12;;;;;;;9.77;7.88;;;;;;;;;;5012595;28;20469;-84
2023/03/07 07:45:39;;;;;;;12.00;8.10;;;;;;;;;;5011828;28;20062;-85
2023/03/07 07:48:07;;;;;;;10.55;8.25;;;;;;;;;;5005916;28;20096;-86
2023/03/07 07:50:35;;;;;;;10.95;8.23;;;;;;;;;;5011851;28;20054;-86
2023/03/07 07:53:02;;;;;;;9.48;8.00;;;;;;;;;;5016228;28;20046;-85
2023/03/07 07:55:30;;;;;;;10.90;7.97;;;;;;;;;;5015949;28;20415;-84
2023/03/07 07:57:57;;;;;;;12.35;8.77;;;;;;;;;;5015114;28;20129;-86
2023/03/07 08:00:24;;;;;;;10.82;8.48;;;;;;;;;;5015277;28;20406;-87
2023/03/07 08:02:51;;;;;;;10.32;8.38;;;;;;;;;;5015143;28;20074;-85
2023/03/07 08:05:19;;;;;;;10.55;8.30;;;;;;;;;;5014175;28;20379;-86
2023/03/07 08:07:47;;;;;;;11.38;8.95;;;;;;;;;;5006212;28;20529;-87
2023/03/07 08:10:15;;;;;;;12.68;8.90;;;;;;;;;;5007687;28;20041;-86
2023/03/07 08:12:51;;;;;;;10.73;8.60;;;;;;;;;;5014459;28;20046;-85
2023/03/07 08:15:20;;;;;;;12.13;9.18;;;;;;;;;;5015749;28;20132;-84
2023/03/07 08:17:49;;;;;;;12.35;9.40;;;;;;;;;;5014779;28;20059;-87
2023/03/07 08:20:16;;;;;;;10.40;8.05;;;;;;;;;;5005457;28;20462;-86
2023/03/07 08:22:44;;;;;;;12.05;9.07;;;;;;;;;;5003398;28;20058;-86
2023/03/07 08:25:16;;;;;;;11.50;9.30;;;;;;;;;;5004852;28;20041;-88
2023/03/07 08:27:44;;;;;;;14.55;9.38;;;;;;;;;;4996006;28;20054;-86
2023/03/07 08:30:12;;;;;;;12.32;9.50;;;;;;;;;;4996196;28;20058;-85
2023/03/07 08:32:39;;;;;;;11.82;9.43;;;;;;;;;;4994975;28;20046;-85
2023/03/07 08:35:07;;;;;;;12.15;8.75;;;;;;;;;;4995835;28;20414;-87
2023/03/07 08:37:34;;;;;;;11.95;8.98;;;;;;;;;;4995605;28;20050;-85
2023/03/07 08:40:03;;;;;;;13.80;9.38;;;;;;;;;;4994506;28;20046;-86
2023/03/07 08:42:30;;;;;;;10.88;8.75;;;;;;;;;;4994959;28;20418;-86
2023/03/07 08:44:57;;;;;;;10.90;8.82;;;;;;;;;;4994611;28;20053;-83
2023/03/07 08:47:24;;;;;;;11.38;9.23;;;;;;;;;;4994481;28;20137;-84
2023/03/07 08:49:52;;;;;;;11.60;9.32;;;;;;;;;;4994701;28;20050;-84
2023/03/07 08:52:19;;;;;;;11.32;8.30;;;;;;;;;;4994669;28;20054;-86
2023/03/07 08:54:46;;;;;;;11.70;9.15;;;;;;;;;;4999976;28;20137;-87
2023/03/07 08:57:13;;;;;;;10.90;8.77;;;;;;;;;;5003833;28;20054;-86
2023/03/07 08:59:41;;;;;;;10.40;8.23;;;;;;;;;;4996696;28;20506;-86
2023/03/07 09:02:09;;;;;;;13.77;9.80;;;;;;;;;;4994090;28;20061;-85
2023/03/07 09:04:37;;;;;;;12.00;9.60;;;;;;;;;;4994203;28;20144;-86
2023/03/07 09:07:04;;;;;;;12.05;9.23;;;;;;;;;;4995254;28;20108;-85
2023/03/07 09:09:31;;;;;;;11.43;9.38;;;;;;;;;;4995145;28;20506;-87
2023/03/07 09:11:59;;;;;;;13.40;10.43;;;;;;;;;;4995346;28;20110;-88
2023/03/07 09:14:26;;;;;;;12.38;9.35;;;;;;;;;;4993816;28;20488;-88
2023/03/07 09:16:53;;;;;;;11.98;9.00;;;;;;;;;;4993846;28;20529;-85
2023/03/07 09:19:22;;;;;;;12.70;9.95;;;;;;;;;;4993583;28;20051;-85
2023/03/07 09:21:49;;;;;;;11.40;9.15;;;;;;;;;;4993879;28;20054;-86
2023/03/07 09:24:17;;;;;;;11.90;9.63;;;;;;;;;;4995035;28;20414;-87
2023/03/07 09:26:44;;;;;;;13.48;9.75;;;;;;;;;;4993474;28;20101;-86
2023/03/07 09:29:11;;;;;;;14.23;9.18;;;;;;;;;;4993405;28;20050;-85
2023/03/07 09:31:40;;;;;;;12.35;8.40;;;;;;;;;;4993248;28;20069;-87
2023/03/07 09:34:07;;;;;;;14.05;8.55;;;;;;;;;;4993435;28;20050;-87
2023/03/07 09:36:35;;;;;;;10.32;8.55;;;;;;;;;;4994636;28;20080;-85
2023/03/07 09:39:04;;;;;;;10.80;8.43;;;;;;;;;;4993371;28;20181;-83
2023/03/07 09:41:49;;;;;;;13.40;8.82;;;;;;;;;;4993620;28;20064;-85
2023/03/07 09:44:19;;;;;;;11.45;8.55;;;;;;;;;;4994211;28;20074;-84
2023/03/07 09:46:46;;;;;;;10.60;8.27;;;;;;;;;;4993180;28;20050;-86
2023/03/07 09:49:20;;;;;;;12.18;8.98;;;;;;;;;;4994389;28;20054;-85
2023/03/07 09:51:50;;;;;;;12.00;8.43;;;;;;;;;;4993373;28;20049;-85
2023/03/07 09:54:21;;;;;;;10.60;8.05;;;;;;;;;;4994148;28;20064;-88
2023/03/07 09:56:59;;;;;;;14.15;8.48;;;;;;;;;;4994079;28;20593;-83
2023/03/07 09:59:38;;;;;;;10.75;7.70;;;;;;;;;;4993005;28;20508;-86
2023/03/07 10:02:15;;;;;;;12.30;8.80;;;;;;;;;;4992957;28;20137;-84
2023/03/07 10:04:42;;;;;;;9.13;7.80;;;;;;;;;;4993084;28;20074;-84
2023/03/07 10:07:11;;;;;;;19.77;8.40;;;;;;;;;;4993114;28;20058;-85
2023/03/07 10:09:39;;;;;;;13.38;8.70;;;;;;;;;;4992799;28;20061;-84
2023/03/07 10:12:17;;;;;;;10.05;7.90;;;;;;;;;;4993840;28;20054;-85
2023/03/07 10:15:02;;;;;;;8.95;7.55;;;;;;;;;;4992909;28;20046;-89
2023/03/07 10:17:43;;;;;;;10.05;7.82;;;;;;;;;;4993863;28;20113;-86
2023/03/07 10:20:29;;;;;;;10.05;7.80;;;;;;;;;;4993408;28;20047;-87
2023/03/07 10:23:05;;;;;;;10.27;8.15;;;;;;;;;;4992744;28;20042;-84
2023/03/07 10:25:53;;;;;;;8.70;7.40;;;;;;;;;;4993540;28;20066;-84
2023/03/07 10:28:26;;;;;;;10.52;7.72;;;;;;;;;;4992716;28;20066;-85
2023/03/07 10:30:58;;;;;;;17.20;8.52;;;;;;;;;;4992799;28;20046;-84
2023/03/07 10:33:26;;;;;;;9.63;7.55;;;;;;;;;;4992518;28;20050;-87
2023/03/07 10:36:19;;;;;;;10.90;7.75;;;;;;;;;;4992537;28;20054;-85
2023/03/07 10:38:54;;;;;;;10.13;7.88;;;;;;;;;;4978271;28;20479;-85
2023/03/07 10:41:22;;;;;;;13.18;8.00;;;;;;;;;;4993638;28;20060;-84
2023/03/07 10:43:50;;;;;;;11.00;8.02;;;;;;;;;;4992694;28;20056;-86
2023/03/07 10:46:22;;;;;;;8.40;7.50;;;;;;;;;;4992494;28;20058;-88
2023/03/07 10:48:54;;;;;;;10.43;8.23;;;;;;;;;;4993694;28;20054;-85
2023/03/07 10:51:30;;;;;;;10.23;7.90;;;;;;;;;;4993018;28;20051;-86
2023/03/07 10:53:58;;;;;;;10.13;8.18;;;;;;;;;;4993888;28;20082;-86
2023/03/07 10:56:25;;;;;;;9.50;8.02;;;;;;;;;;4992781;28;20085;-87
2023/03/07 10:59:03;;;;;;;10.95;7.95;;;;;;;;;;4992213;28;20479;-85
2023/03/07 11:01:31;;;;;;;10.07;7.85;;;;;;;;;;4992446;28;20057;-85
2023/03/07 11:04:01;;;;;;;8.07;7.25;;;;;;;;;;4993982;28;20050;-87
2023/03/07 11:06:32;;;;;;;11.10;7.40;;;;;;;;;;4992177;28;20046;-85
2023/03/07 11:09:18;;;;;;;11.05;7.63;;;;;;;;;;4993157;28;20137;-85
2023/03/07 11:12:09;;;;;;;8.63;7.20;;;;;;;;;;4991927;28;20046;-84
2023/03/07 11:15:08;;;;;;;9.48;6.95;;;;;;;;;;4987048;28;20068;-85
2023/03/07 11:17:41;;;;;;;9.93;7.40;;;;;;;;;;4970939;28;20053;-83
2023/03/07 11:20:22;;;;;;;11.38;6.93;;;;;;;;;;4992048;28;20057;-85
2023/03/07 11:22:50;;;;;;;10.25;7.18;;;;;;;;;;4992288;28;20042;-85
2023/03/07 11:25:17;;;;;;;8.70;7.05;;;;;;;;;;4995737;28;20073;-84
2023/03/07 11:27:45;;;;;;;13.18;7.93;;;;;;;;;;4995500;28;20054;-85
2023/03/07 11:30:15;;;;;;;7.20;6.50;;;;;;;;;;4995730;28;20149;-85
2023/03/07 11:33:03;;;;;;;8.40;7.15;;;;;;;;;;4995813;28;20233;-84
2023/03/07 11:35:42;;;;;;;12.98;6.85;;;;;;;;;;4995966;28;20050;-85
2023/03/07 11:38:40;;;;;;;10.30;7.18;;;;;;;;;;4995386;28;20534;-84
2023/03/07 11:41:14;;;;;;;9.50;6.43;;;;;;;;;;4995492;28;20060;-85
2023/03/07 11:43:41;;;;;;;10.70;6.03;;;;;;;;;;4996835;28;20058;-85
2023/03/07 11:46:11;;;;;;;8.60;6.30;;;;;;;;;;4995323;28;20060;-86
2023/03/07 11:49:00;;;;;;;9.30;5.80;;;;;;;;;;4996385;28;20495;-84
2023/03/07 11:51:27;;;;;;;7.80;6.18;;;;;;;;;;4995688;28;20487;-86
2023/03/07 11:54:03;;;;;;;13.68;6.88;;;;;;;;;;4995754;28;20615;-85
2023/03/07 11:56:36;;;;;;;7.20;6.50;;;;;;;;;;4995143;28;20793;-85
2023/03/07 11:59:22;;;;;;;8.45;6.28;;;;;;;;;;4995189;28;20065;-84
2023/03/07 12:01:49;;;;;;;10.30;6.28;;;;;;;;;;4994982;28;20505;-86
2023/03/07 12:04:16;;;;;;;10.05;6.45;;;;;;;;;;4996191;28;20081;-85
2023/03/07 12:06:50;;;;;;;8.23;6.30;;;;;;;;;;4994990;28;20089;-84
2023/03/07 12:09:28;;;;;;;9.10;7.10;;;;;;;;;;4994434;28;20518;-87
2023/03/07 12:12:15;;;;;;;8.23;6.40;;;;;;;;;;4995036;28;20046;-84
2023/03/07 12:15:00;;;;;;;10.32;7.03;;;;;;;;;;4994188;28;20471;-85
2023/03/07 12:17:38;;;;;;;9.35;7.15;;;;;;;;;;4996056;28;20054;-84
2023/03/07 12:20:15;;;;;;;7.53;6.72;;;;;;;;;;4994914;28;20433;-85
2023/03/07 12:22:55;;;;;;;11.93;7.00;;;;;;;;;;4995954;28;20081;-84
2023/03/07 12:25:27;;;;;;;10.02;7.35;;;;;;;;;;4994649;28;20068;-84
2023/03/07 12:27:57;;;;;;;8.73;6.72;;;;;;;;;;4994683;28;20060;-86
2023/03/07 12:30:27;;;;;;;9.27;6.75;;;;;;;;;;4994414;28;20050;-85
2023/03/07 12:32:54;;;;;;;7.53;6.43;;;;;;;;;;4994902;28;20058;-85
2023/03/07 12:35:24;;;;;;;8.40;6.60;;;;;;;;;;4995002;28;20061;-84
2023/03/07 12:37:51;;;;;;;9.43;7.00;;;;;;;;;;4994832;28;20081;-85
2023/03/07 12:40:32;;;;;;;8.18;6.38;;;;;;;;;;4994662;28;20046;-86
2023/03/07 12:43:16;;;;;;;7.43;6.22;;;;;;;;;;4995414;28;20046;-85
2023/03/07 12:45:43;;;;;;;;;;;;;;;;;;4995981;28;20341;-86
2023/03/07 12:48:29;;;;;;;7.32;6.03;;;;;;;;;;4993733;28;19929;-86
2023/03/07 12:51:00;;;;;;;8.18;6.10;;;;;;;;;;4994273;28;20054;-84
2023/03/07 12:53:27;;;;;;;7.20;6.43;;;;;;;;;;4994190;28;20042;-85
2023/03/07 12:55:56;;;;;;;7.93;6.55;;;;;;;;;;4995303;28;20411;-85
2023/03/07 12:58:42;;;;;;;9.98;7.22;;;;;;;;;;4994336;28;20066;-84
2023/03/07 13:01:13;;;;;;;12.30;7.10;;;;;;;;;;4994697;28;20057;-84
2023/03/07 13:03:45;;;;;;;8.00;6.05;;;;;;;;;;4994061;28;20046;-86
2023/03/07 13:06:15;;;;;;;7.93;6.10;;;;;;;;;;4994028;28;20046;-85
2023/03/07 13:08:44;;;;;;;8.30;6.88;;;;;;;;;;4994145;28;20062;-85
2023/03/07 13:11:38;;;;;;;9.05;6.63;;;;;;;;;;4994261;28;20061;-84
2023/03/07 13:14:05;;;;;;;10.32;6.70;;;;;;;;;;4993201;28;20097;-84
2023/03/07 13:16:40;;;;;;;9.13;7.13;;;;;;;;;;4994840;28;20445;-84
2023/03/07 13:19:27;;;;;;;7.13;6.43;;;;;;;;;;4995043;28;20054;-86
2023/03/07 13:21:54;;;;;;;9.68;5.95;;;;;;;;;;4994071;28;20046;-84
2023/03/07 13:24:38;;;;;;;8.30;6.45;;;;;;;;;;4993546;28;20419;-86
2023/03/07 13:27:17;;;;;;;9.10;6.45;;;;;;;;;;4994738;28;20078;-84
2023/03/07 13:30:03;;;;;;;9.57;6.28;;;;;;;;;;4995053;28;20046;-85
2023/03/07 13:32:48;;;;;;;8.70;6.00;;;;;;;;;;4993671;28;20050;-85
2023/03/07 13:35:28;;;;;;;7.28;6.40;;;;;;;;;;4994226;28;20491;-85
2023/03/07 13:38:16;;;;;;;7.93;5.97;;;;;;;;;;4993737;28;20061;-86
2023/03/07 13:40:43;;;;;;;10.20;5.68;;;;;;;;;;4994622;28;20498;-86
2023/03/07 13:43:31;;;;;;;9.38;6.18;;;;;;;;;;4994500;28;20042;-86
2023/03/07 13:45:59;;;;;;;8.85;5.75;;;;;;;;;;4993177;28;20483;-84
2023/03/07 13:48:29;;;;;;;8.05;6.07;;;;;;;;;;4993571;28;20137;-85
2023/03/07 13:51:00;;;;;;;7.18;5.82;;;;;;;;;;4993380;28;20121;-84
2023/03/07 13:53:27;;;;;;;9.13;5.78;;;;;;;;;;4994284;28;20054;-85
2023/03/07 13:56:23;;;;;;;9.73;5.50;;;;;;;;;;4993007;28;20058;-85
2023/03/07 13:58:56;;;;;;;7.88;5.70;;;;;;;;;;4993159;28;20054;-86
2023/03/07 14:01:27;;;;;;;5.93;5.32;;;;;;;;;;4994419;28;20391;-85
2023/03/07 14:03:56;;;;;;;7.18;5.57;;;;;;;;;;4993220;28;20051;-86
2023/03/07 14:06:30;;;;;;;7.18;5.45;;;;;;;;;;4992790;28;20501;-86
2023/03/07 14:08:58;;;;;;;8.52;5.95;;;;;;;;;;4992825;28;20058;-85
2023/03/07 14:11:34;;;;;;;6.45;5.68;;;;;;;;;;4993286;28;20050;-86
2023/03/07 14:14:07;;;;;;;7.63;5.57;;;;;;;;;;4994202;28;20056;-86
2023/03/07 14:16:42;;;;;;;6.13;5.45;;;;;;;;;;4992917;28;20054;-86
2023/03/07 14:19:28;;;;;;;6.18;4.97;;;;;;;;;;4994061;28;20464;-86
2023/03/07 14:21:59;;;;;;;6.90;5.35;;;;;;;;;;4993001;28;20042;-86
2023/03/07 14:24:49;;;;;;;6.60;4.68;;;;;;;;;;4992858;28;20050;-86
2023/03/07 14:27:17;;;;;;;7.07;5.60;;;;;;;;;;4993160;28;20050;-86
2023/03/07 14:29:48;;;;;;;9.48;5.05;;;;;;;;;;4994003;28;20050;-86
2023/03/07 14:32:22;;;;;;;7.80;5.22;;;;;;;;;;4992988;28;20046;-86
2023/03/07 14:34:49;;;;;;;;;;;;;;;;;;4994455;28;20058;-86
2023/03/07 14:37:19;;;;;;;6.40;4.88;;;;;;;;;;4993829;28;20020;-86
2023/03/07 14:39:52;;;;;;;7.75;4.78;;;;;;;;;;4992781;28;20043;-85
2023/03/07 14:42:26;;;;;;;7.13;5.00;;;;;;;;;;4994004;28;20047;-86
2023/03/07 14:45:01;;;;;;;9.27;5.28;;;;;;;;;;4993888;28;20046;-86
2023/03/07 14:47:42;;;;;;;6.70;4.65;;;;;;;;;;4992766;28;20105;-86
2023/03/07 14:50:14;;;;;;;11.23;4.85;;;;;;;;;;4992827;28;20084;-86